Current Metar reports for airports in our Region

Nearby METAR Reports

Metar reports are mainly used by pilots for information on what is happening at their destination during their pre-flight weather briefings and by meteorologists to assist in short term forecasts. A raw Metar is one of the most universal ways to communicate weather information in the world and are usually transmitted by airports, but some come from permanent sanctioned weather observatories.

Listed below are Metars from airports within 100 miles of our station here in Smethport Pa. The first one of course is the Bradford Regional Airport, then the Olean NY airport and so on. Each airport has it's own table to display it's data and at the bottom of the table is 'Raw' Metar for each airport. Most pilots and weather forecasters can look at the raw data and tell you what is up, but we use a script that handles all of the details for us.

KBFD - Bradford, Pennsylvania, USA
Distance from station: NW 7mi, 11km
Updated: Fri, 20-Apr-2018 12:11am EDT
Overcast
Overcast
 Wind from NW
Wind: NW 12 mph , 19 km/h
Temperature: 28°F , -2°C
Wind Chill: 18°F , -8°C
Dew Point: 19°F , -7°C
Humidity: 69%
Barometer: 30.12 inHg , 1020 hPa
Clouds: Overcast
Visibility: 10 miles , 16 km
Cloud details: Mostly Cloudy 2200 ft
Overcast 3200 ft
2018/04/20 04:11 KBFD 200411Z AUTO 31010KT 10SM BKN022 OVC032 M02/M07 A3012 RMK AO2 T10171067
KOLE - Olean, New York, USA
Distance from station: NNE 37mi, 59km
Updated: Fri, 20-Apr-2018 12:35am EDT
Light snow, Overcast
Light snow, Overcast
 Wind from NW
Wind: NW 7 mph , 11 km/h, Gust: 16 mph , 26 km/h
Temperature: 27°F , -3°C
Wind Chill: 19°F , -7°C
Dew Point: 25°F , -4°C
Humidity: 93%
Barometer: 30.10 inHg , 1019.3 hPa
Summary: Light Snow
Clouds: Overcast
Visibility: 3 miles , 5 km
Cloud details: Overcast 900 ft
2018/04/20 04:35 KOLE 200435Z AUTO 31006G14KT 3SM -SN OVC009 M03/M04 A3010 RMK AO2
 
KELZ - Wellsville, New York, USA
Distance from station: NE 40mi, 64km
Updated: Fri, 20-Apr-2018 12:50am EDT
Light snow, Mist, Overcast
Light snow, Mist, Overcast
 Wind from NW
Wind: NW 10 mph , 17 km/h
Temperature: 28°F , -2°C
Wind Chill: 19°F , -7°C
Dew Point: 25°F , -4°C
Humidity: 86%
Barometer: 30.10 inHg , 1019.3 hPa
Summary: Light snow, Mist
Clouds: Overcast
Visibility: 2 1/2 miles , 4 km
Cloud details: Mostly Cloudy 1000 ft
Mostly Cloudy 1900 ft
Overcast 3900 ft
2018/04/20 04:50 KELZ 200450Z AUTO 32009KT 2 1/2SM -SN BR BKN010 BKN019 OVC039 M02/M04 A3010 RMK AO2 P0000 $
KDUJ - Du Bois, Pennsylvania, USA
Distance from station: SSW 42mi, 68km
Updated: Thu, 19-Apr-2018 11:53pm EDT
Clear
Clear
 Wind from NW
Wind: NW 13 mph , 20 km/h, Gust: 18 mph , 30 km/h
Temperature: 28°F , -2°C
Wind Chill: 17°F , -8°C
Dew Point: 21°F , -6°C
Humidity: 74%
Barometer: 30.15 inHg , 1021 hPa
Clouds: Clear
Visibility: 10 miles , 16 km
2018/04/20 03:53 KDUJ 200353Z AUTO 31011G16KT 10SM CLR M02/M06 A3015 RMK AO2 SLP230 T10171061 TSNO
 
KJHW - Jamestown, New York, USA
Distance from station: NW 46mi, 75km
Updated: Thu, 19-Apr-2018 11:56pm EDT
Mostly Cloudy
Mostly Cloudy
 Wind from WNW
Wind: WNW 15 mph , 24 km/h, Gust: 24 mph , 39 km/h
Temperature: 28°F , -2°C
Wind Chill: 16°F , -9°C
Dew Point: 23°F , -5°C
Humidity: 80%
Barometer: 30.16 inHg , 1021.3 hPa
Clouds: Mostly Cloudy
Visibility: 10 miles , 16 km
Cloud details: Mostly Cloudy 4500 ft
2018/04/20 03:56 KJHW 200356Z AUTO 30013G21KT 10SM BKN045 M02/M05 A3016 RMK AO2 SLP239 T10221050 FZRANO
KFIG - Clearfield, Pennsylvania, USA
Distance from station: S 47mi, 75km
Updated: Thu, 19-Apr-2018 11:54pm EDT
Partly Cloudy
Partly Cloudy
 Wind from NW
Wind: NW 8 mph , 13 km/h
Temperature: 32°F , 0°C
Wind Chill: 25°F , -4°C
Dew Point: 21°F , -6°C
Humidity: 64%
Barometer: 30.15 inHg , 1021 hPa
Clouds: Partly Cloudy
Visibility: 10 miles , 16 km
Cloud details: Partly Cloudy 3600 ft
2018/04/20 03:54 KFIG 200354Z AUTO 31007KT 10SM SCT036 00/M06 A3015 RMK AO2 SLP225 T00001061
 
KDKK - Dunkirk, New York, USA
Distance from station: NW 66mi, 106km
Updated: Thu, 19-Apr-2018 11:53pm EDT
Few Clouds
Few Clouds
 Wind from W
Wind: W 8 mph , 13 km/h
Temperature: 34°F , 1°C
Wind Chill: 27°F , -3°C
Dew Point: 27°F , -3°C
Humidity: 75%
Barometer: 30.21 inHg , 1023 hPa
Clouds: Few Clouds
Visibility: 10 miles , 16 km
Cloud details: Few Clouds 6000 ft
2018/04/20 03:53 KDKK 200353Z AUTO 27007KT 10SM FEW060 01/M03 A3021 RMK AO2 SLP238 T00061033
KUNV - State College, Pennsylvania, USA
Distance from station: SSE 71mi, 114km
Updated: Fri, 20-Apr-2018 12:35am EDT
Partly Cloudy
Partly Cloudy
 Wind from NW
Wind: NW 10 mph , 17 km/h, Gust: 16 mph , 26 km/h
Temperature: 32°F , 0°C
Wind Chill: 24°F , -4°C
Dew Point: 21°F , -6°C
Humidity: 64%
Barometer: 30.14 inHg , 1020.7 hPa
Clouds: Partly Cloudy
Visibility: 10 miles , 16 km
Cloud details: Partly Cloudy 3500 ft
Partly Cloudy 4300 ft
Partly Cloudy 5000 ft
2018/04/20 04:35 KUNV 200435Z AUTO 32009G14KT 10SM SCT035 SCT043 SCT050 00/M06 A3014 RMK AO2 T00031057
 
KFKL - Franklin, Pennsylvania, USA
Distance from station: WSW 72mi, 116km
Updated: Thu, 19-Apr-2018 11:56pm EDT
Clear
Clear
 Wind from WNW
Wind: WNW 5 mph , 7 km/h
Temperature: 28°F , -2°C
Wind Chill: 22°F , -6°C
Dew Point: 23°F , -5°C
Humidity: 80%
Barometer: 30.22 inHg , 1023.4 hPa
Clouds: Clear
Visibility: 10 miles , 16 km
2018/04/20 03:56 KFKL 200356Z AUTO 30004KT 10SM CLR M02/M05 A3022 RMK AO2 SLP253 T10171050 FZRANO
KDSV - Dansville, New York, USA
Distance from station: NE 73mi, 117km
Updated: Thu, 19-Apr-2018 11:54pm EDT
Overcast
Overcast
 Wind from WNW
Wind: WNW 13 mph , 20 km/h, Gust: 20 mph , 31 km/h
Temperature: 34°F , 1°C
Wind Chill: 25°F , -4°C
Dew Point: 25°F , -4°C
Humidity: 70%
Barometer: 30.14 inHg , 1020.7 hPa
Clouds: Overcast
Visibility: 9 miles , 14 km
Cloud details: Partly Cloudy 3500 ft
Partly Cloudy 4600 ft
Overcast 6000 ft
2018/04/20 03:54 KDSV 200354Z AUTO 30011G17KT 9SM SCT035 SCT046 OVC060 01/M04 A3014 RMK AO2 SNB0256E52 SLP222 P0000 T00061044
 
KIDI - Indiana/Stewart, Pennsylvania, USA
Distance from station: SSW 81mi, 130km
Updated: Fri, 20-Apr-2018 12:35am EDT
Partly Cloudy
Partly Cloudy
 Wind from NW
Wind: NW 9 mph , 15 km/h, Gust: 17 mph , 28 km/h
Temperature: 32°F , 0°C
Wind Chill: 24°F , -4°C
Dew Point: 23°F , -5°C
Humidity: 69%
Barometer: 30.25 inHg , 1024.4 hPa
Clouds: Partly Cloudy
Visibility: 10 miles , 16 km
Cloud details: Partly Cloudy 3000 ft
Partly Cloudy 4200 ft
Partly Cloudy 5000 ft
2018/04/20 04:35 KIDI 200435Z AUTO 31008G15KT 10SM SCT030 SCT042 SCT050 M00/M05 A3025 RMK A01
KBUF - Buffalo/Cheektow, New York, USA
Distance from station: N 84mi, 136km
Updated: Thu, 19-Apr-2018 11:54pm EDT
Light snow, Mostly cloudy
Light snow, Mostly cloudy
 Wind from W
Wind: W 9 mph , 15 km/h
Temperature: 34°F , 1°C
Wind Chill: 27°F , -3°C
Dew Point: 27°F , -3°C
Humidity: 75%
Barometer: 30.18 inHg , 1022 hPa
Summary: Light Snow
Clouds: Mostly Cloudy
Visibility: 9 miles , 14 km
Cloud details: Mostly Cloudy 4200 ft
2018/04/20 03:54 KBUF 200354Z 28008KT 9SM -SN BKN042 01/M03 A3018 RMK AO2 SLP227 P0000 T00111033
 
KGKJ - Meadville, Pennsylvania, USA
Distance from station: W 86mi, 138km
Updated: Thu, 19-Apr-2018 11:53pm EDT
Clear
Clear
 Wind from W
Wind: W 5 mph , 7 km/h
Temperature: 28°F , -2°C
Wind Chill: 22°F , -6°C
Dew Point: 25°F , -4°C
Humidity: 86%
Barometer: 30.22 inHg , 1023.4 hPa
Clouds: Clear
Visibility: 10 miles , 16 km
2018/04/20 03:53 KGKJ 200353Z AUTO 26004KT 10SM CLR M02/M04 A3022 RMK AO2 SLP250 T10221044
KERI - Erie, Pennsylvania, USA
Distance from station: WNW 87mi, 140km
Updated: Fri, 20-Apr-2018 12:51am EDT
Clear
Clear
 Wind from WNW
Wind: WNW 7 mph , 11 km/h
Temperature: 36°F , 2°C
Wind Chill: 30°F , -1°C
Dew Point: 25°F , -4°C
Humidity: 65%
Barometer: 30.25 inHg , 1024.4 hPa
Clouds: Clear
Visibility: 10 miles , 16 km
2018/04/20 04:51 KERI 200451Z AUTO 30006KT 10SM CLR 02/M04 A3025 RMK AO2 SLP249 T00221039 400390006
 
KELM - Elmira, New York, USA
Distance from station: ENE 90mi, 145km
Updated: Fri, 20-Apr-2018 12:31am EDT
Light snow, Overcast
Light snow, Overcast
 Wind from WNW
Wind: WNW 8 mph , 13 km/h, Gust: 21 mph , 33 km/h
Temperature: 34°F , 1°C
Wind Chill: 27°F , -3°C
Dew Point: 25°F , -4°C
Humidity: 70%
Barometer: 30.11 inHg , 1019.6 hPa
Summary: Light Snow
Clouds: Overcast
Visibility: 9 miles , 14 km
Cloud details: Mostly Cloudy 2600 ft
Overcast 3200 ft
2018/04/20 04:31 KELM 200431Z AUTO 30007G18KT 9SM -SN BKN026 OVC032 01/M04 A3011 RMK AO2 SNB29 P0000 T00061039
KIPT - Williamsport, Pennsylvania, USA
Distance from station: ESE 91mi, 146km
Updated: Thu, 19-Apr-2018 11:54pm EDT
Light snow, Overcast
Light snow, Overcast
 Wind from WNW
Wind: WNW 12 mph , 19 km/h
Temperature: 34°F , 1°C
Wind Chill: 25°F , -4°C
Dew Point: 28°F , -2°C
Humidity: 81%
Barometer: 30.12 inHg , 1020 hPa
Summary: Light Snow
Clouds: Overcast
Visibility: 6 miles , 10 km
Cloud details: Mostly Cloudy 3600 ft
Overcast 4700 ft
2018/04/20 03:54 KIPT 200354Z AUTO 30010KT 6SM -SN BKN036 OVC047 01/M02 A3012 RMK AO2 WSHFT 0324 SNB03 SLP204 P0001 T00111017
 
KBTP - Butler Co., Pennsylvania, USA
Distance from station: SW 98mi, 157km
Updated: Thu, 19-Apr-2018 11:56pm EDT
Clear
Clear
 Wind from varies
Wind: varies 7 mph , 11 km/h
Temperature: 30°F , -1°C
Wind Chill: 23°F , -5°C
Dew Point: 23°F , -5°C
Humidity: 75%
Barometer: 30.25 inHg , 1024.4 hPa
Clouds: Clear
Visibility: 10 miles , 16 km
2018/04/20 03:56 KBTP 200356Z AUTO VRB06KT 10SM CLR M01/M05 A3025 RMK AO2 SLP262 T10061050 FZRANO
KAOO - Altoona, Pennsylvania, USA
Distance from station: S 99mi, 159km
Updated: Fri, 20-Apr-2018 12:45am EDT
Overcast
Overcast
 Wind from NW
Wind: NW 16 mph , 26 km/h, Gust: 28 mph , 44 km/h
Temperature: 34°F , 1°C
Wind Chill: 24°F , -4°C
Dew Point: 21°F , -6°C
Humidity: 60%
Barometer: 30.17 inHg , 1021.7 hPa
Clouds: Overcast
Visibility: 10 miles , 16 km
Cloud details: Overcast 2900 ft
2018/04/20 04:45 KAOO 200445Z AUTO 31014G24KT 10SM OVC029 01/M06 A3017 RMK AO2 T00111061
 
KPIT - Pittsburg, Pennsylvania, USA
Distance from station: SSW 126mi, 203km
Updated: Fri, 20-Apr-2018 12:51am EDT
Clear
Clear
 Wind from NNW
Wind: NNW 9 mph , 15 km/h
Temperature: 34°F , 1°C
Wind Chill: 27°F , -3°C
Dew Point: 23°F , -5°C
Humidity: 65%
Barometer: 30.26 inHg , 1024.7 hPa
Clouds: Clear
Visibility: 10 miles , 16 km
2018/04/20 04:51 KPIT 200451Z 33008KT 10SM CLR 01/M05 A3026 RMK AO2 SLP265 T00061050 400720006
KCLE - Cleveland, Ohio, USA
Distance from station: WSW 160mi, 258km
Updated: Fri, 20-Apr-2018 12:51am EDT
Clear
Clear
 Wind from WSW
Wind: WSW 6 mph , 9 km/h
Temperature: 34°F , 1°C
Wind Chill: 29°F , -2°C
Dew Point: 23°F , -5°C
Humidity: 65%
Barometer: 30.33 inHg , 1027.1 hPa
Clouds: Clear
Visibility: 10 miles , 16 km
2018/04/20 04:51 KCLE 200451Z 25005KT 10SM CLR 01/M05 A3033 RMK AO2 SLP277 T00061050 400830000 $